Time;durP1;ratioP1;P1;durP2;ratioP2;P2;SDS_P1;SDS_P2;PMS_P1;PMS_P2;Temp;Humidity;BMP_temperature;BMP_pressure;BME280_temperature;BME280_humidity;BME280_pressure;Samples;Min_cycle;Max_cycle;Signal;HPM_P1;HPM_P2
2023/12/26 00:00:05;;;;;;;1.00;1.00;;;;;;;9.08;81.25;99466.03;5072590;28;20253;-67
2023/12/26 00:02:33;;;;;;;0.83;0.83;;;;;;;9.12;81.03;99467.66;5072392;28;20193;-67
2023/12/26 00:05:00;;;;;;;0.60;0.60;;;;;;;9.09;80.98;99460.03;5072059;28;20208;-67
2023/12/26 00:07:26;;;;;;;1.57;1.30;;;;;;;9.21;80.42;99477.66;5072177;28;20200;-69
2023/12/26 00:09:53;;;;;;;0.70;0.70;;;;;;;9.26;80.62;99482.69;5071730;28;20196;-69
2023/12/26 00:12:20;;;;;;;0.80;0.80;;;;;;;9.37;80.92;99484.09;5070809;28;20196;-69
2023/12/26 00:14:46;;;;;;;0.53;0.53;;;;;;;9.36;80.32;99474.75;5072239;28;20203;-69
2023/12/26 00:17:13;;;;;;;0.90;0.90;;;;;;;9.46;80.12;99481.34;5072222;28;20196;-69
2023/12/26 00:19:41;;;;;;;1.17;1.10;;;;;;;9.47;80.08;99482.16;5072257;28;20668;-69
2023/12/26 00:22:08;;;;;;;0.73;0.73;;;;;;;9.49;79.82;99494.06;5072005;28;20669;-69
2023/12/26 00:24:35;;;;;;;0.60;0.60;;;;;;;9.54;79.20;99491.38;5072102;28;20273;-69
2023/12/26 00:27:01;;;;;;;0.50;0.50;;;;;;;9.57;79.16;99503.25;5072025;28;20204;-69
2023/12/26 00:29:28;;;;;;;1.23;1.13;;;;;;;9.61;79.07;99497.16;5071893;28;20200;-69
2023/12/26 00:31:55;;;;;;;0.80;0.80;;;;;;;9.60;78.97;99506.56;5071804;28;20210;-67
2023/12/26 00:34:22;;;;;;;0.90;0.90;;;;;;;9.60;79.12;99503.16;5072226;28;20695;-67
2023/12/26 00:36:50;;;;;;;0.63;0.63;;;;;;;9.61;78.23;99499.72;5072546;28;20200;-67
2023/12/26 00:39:16;;;;;;;0.73;0.73;;;;;;;9.66;77.70;99511.53;5071829;28;20207;-67
2023/12/26 00:41:43;;;;;;;0.93;0.73;;;;;;;9.71;77.47;99508.88;5071791;28;20642;-67
2023/12/26 00:44:10;;;;;;;0.80;0.80;;;;;;;9.60;79.85;99513.41;5072019;28;20583;-67
2023/12/26 00:46:37;;;;;;;1.20;1.20;;;;;;;9.49;79.98;99514.53;5071373;28;20200;-67
2023/12/26 00:49:04;;;;;;;0.70;0.70;;;;;;;9.44;80.82;99513.78;5071551;28;20200;-67
2023/12/26 00:51:31;;;;;;;1.10;1.10;;;;;;;9.42;80.93;99518.09;5071317;28;20235;-67
2023/12/26 00:53:59;;;;;;;1.17;1.17;;;;;;;9.31;81.14;99524.31;5071452;28;20973;-67
2023/12/26 00:56:25;;;;;;;3.70;1.10;;;;;;;9.19;81.87;99528.00;5070611;28;20254;-67
2023/12/26 00:58:52;;;;;;;1.93;1.83;;;;;;;8.75;84.02;99539.22;5071084;28;20212;-67
2023/12/26 01:01:19;;;;;;;1.50;1.00;;;;;;;8.38;86.20;99533.13;5071065;28;20196;-67
2023/12/26 01:03:46;;;;;;;0.87;0.87;;;;;;;8.13;87.56;99511.44;5071036;28;20191;-69
2023/12/26 01:06:14;;;;;;;1.67;1.03;;;;;;;8.21;87.95;99518.09;5072946;28;20202;-69
2023/12/26 01:08:41;;;;;;;1.00;1.00;;;;;;;8.30;87.74;99524.78;5071176;28;20254;-69
2023/12/26 01:11:09;;;;;;;1.33;1.33;;;;;;;8.22;88.10;99532.56;5071250;28;20203;-69
2023/12/26 01:13:35;;;;;;;1.60;1.47;;;;;;;8.19;88.06;99527.50;5071183;28;20257;-69
2023/12/26 01:16:02;;;;;;;0.83;0.83;;;;;;;7.95;89.04;99527.94;5071176;28;20196;-69
2023/12/26 01:18:30;;;;;;;0.70;0.70;;;;;;;7.82;89.34;99527.31;5070974;28;20291;-69
2023/12/26 01:20:57;;;;;;;1.63;1.60;;;;;;;7.79;89.33;99526.50;5070287;28;20672;-69
2023/12/26 01:23:24;;;;;;;1.97;1.50;;;;;;;7.55;90.25;99516.72;5070971;28;20223;-69
2023/12/26 01:25:51;;;;;;;1.30;1.17;;;;;;;7.39;90.64;99513.56;5070662;28;20246;-69
2023/12/26 01:28:19;;;;;;;0.87;0.87;;;;;;;7.52;90.31;99516.78;5070843;28;20195;-69
2023/12/26 01:30:45;;;;;;;1.10;1.10;;;;;;;7.53;90.48;99518.47;5070773;28;20192;-69
2023/12/26 01:33:12;;;;;;;1.67;1.57;;;;;;;7.56;90.13;99523.53;5070818;28;20304;-69
2023/12/26 01:35:40;;;;;;;0.93;0.93;;;;;;;7.62;89.87;99523.41;5070957;28;20322;-69
2023/12/26 01:38:06;;;;;;;0.90;0.90;;;;;;;7.53;89.65;99523.56;5070543;28;20197;-69
2023/12/26 01:40:33;;;;;;;1.80;1.47;;;;;;;7.54;89.75;99520.13;5073630;28;20668;-69
2023/12/26 01:43:00;;;;;;;0.80;0.80;;;;;;;7.59;89.69;99520.91;5070679;28;20207;-69
2023/12/26 01:45:28;;;;;;;1.60;1.23;;;;;;;7.58;89.84;99516.66;5070669;28;20195;-69
2023/12/26 01:47:58;;;;;;;1.00;1.00;;;;;;;7.61;89.93;99514.06;5070629;28;20208;-69
2023/12/26 01:50:26;;;;;;;0.90;0.90;;;;;;;7.66;89.71;99525.03;5070931;28;20192;-69
2023/12/26 01:52:53;;;;;;;1.30;1.13;;;;;;;7.62;89.48;99528.53;5070220;28;20235;-69
2023/12/26 01:55:21;;;;;;;0.70;0.70;;;;;;;7.61;90.01;99527.66;5070920;28;20269;-69
2023/12/26 01:57:48;;;;;;;0.80;0.80;;;;;;;7.56;90.26;99531.16;5069287;28;20200;-69
2023/12/26 02:00:16;;;;;;;0.93;0.93;;;;;;;7.56;90.42;99538.81;5070453;28;20294;-69
2023/12/26 02:02:44;;;;;;;0.80;0.80;;;;;;;7.47;90.42;99523.63;5070797;28;20204;-69
2023/12/26 02:05:12;;;;;;;0.90;0.90;;;;;;;7.48;90.46;99531.28;5070565;28;20261;-69
2023/12/26 02:07:38;;;;;;;1.40;1.30;;;;;;;7.49;90.34;99539.78;5070265;28;20233;-69
2023/12/26 02:10:06;;;;;;;1.50;1.10;;;;;;;7.51;90.93;99545.69;5070302;28;20249;-69
2023/12/26 02:12:33;;;;;;;1.17;1.17;;;;;;;7.53;90.67;99531.22;5070358;28;20191;-69
2023/12/26 02:15:00;;;;;;;6.03;1.00;;;;;;;7.60;90.17;99537.88;5070402;28;20281;-69
2023/12/26 02:17:29;;;;;;;9.93;0.90;;;;;;;7.47;90.27;99538.94;5069281;28;20265;-67
2023/12/26 02:19:57;;;;;;;1.37;1.33;;;;;;;7.37;90.79;99530.59;5070399;28;20192;-69
2023/12/26 02:22:24;;;;;;;1.17;1.10;;;;;;;7.36;91.34;99522.13;5070613;28;20290;-69
2023/12/26 02:24:52;;;;;;;1.73;1.70;;;;;;;7.40;91.51;99528.00;5070227;28;20196;-69
2023/12/26 02:27:21;;;;;;;1.10;1.10;;;;;;;7.41;91.63;99522.03;5070100;28;20253;-69
2023/12/26 02:29:52;;;;;;;6.07;1.13;;;;;;;7.43;91.45;99527.13;5070331;28;20196;-69
2023/12/26 02:32:20;;;;;;;4.73;1.87;;;;;;;7.45;91.35;99536.44;5071409;28;20204;-69
2023/12/26 02:34:48;;;;;;;0.83;0.83;;;;;;;7.46;90.82;99537.28;5074089;28;20211;-69
2023/12/26 02:37:16;;;;;;;1.30;1.30;;;;;;;7.40;91.10;99536.50;5076292;28;20282;-69
2023/12/26 02:39:44;;;;;;;1.20;1.10;;;;;;;7.40;90.79;99548.41;5073840;28;20249;-69
2023/12/26 02:42:12;;;;;;;3.00;0.80;;;;;;;7.40;90.90;99538.19;5074364;28;20200;-69
2023/12/26 02:44:39;;;;;;;0.93;0.93;;;;;;;7.39;90.72;99532.28;5074107;28;20266;-69
2023/12/26 02:47:06;;;;;;;0.73;0.73;;;;;;;7.39;90.47;99542.47;5073954;28;20200;-69
2023/12/26 02:49:33;;;;;;;0.97;0.97;;;;;;;7.38;90.50;99543.34;5073705;28;20196;-69
2023/12/26 02:51:59;;;;;;;1.40;1.20;;;;;;;7.34;90.78;99549.34;5073708;28;20785;-69
2023/12/26 02:54:26;;;;;;;1.30;1.30;;;;;;;7.34;90.90;99549.34;5073505;28;20270;-69
2023/12/26 02:56:53;;;;;;;1.03;1.03;;;;;;;7.34;90.97;99554.44;5073728;28;20204;-69
2023/12/26 02:59:21;;;;;;;0.60;0.60;;;;;;;7.36;90.44;99556.97;5073488;28;20325;-66
2023/12/26 03:01:48;;;;;;;1.03;1.03;;;;;;;7.23;91.10;99561.41;5073865;28;20249;-67
2023/12/26 03:04:15;;;;;;;0.93;0.93;;;;;;;6.96;91.09;99566.03;5073636;28;20291;-69
2023/12/26 03:06:42;;;;;;;0.80;0.80;;;;;;;6.66;92.46;99568.09;5073281;28;20208;-69
2023/12/26 03:09:08;;;;;;;1.23;1.23;;;;;;;6.68;92.31;99570.63;5074078;28;20200;-69
2023/12/26 03:11:35;;;;;;;1.53;1.43;;;;;;;6.62;92.71;99570.72;5073559;28;20291;-69
2023/12/26 03:14:02;;;;;;;1.20;1.20;;;;;;;6.59;92.99;99565.66;5073512;28;20242;-69
2023/12/26 03:16:31;;;;;;;0.87;0.87;;;;;;;6.66;92.73;99570.63;5073360;28;20257;-69
2023/12/26 03:18:57;;;;;;;1.27;1.27;;;;;;;6.68;93.14;99570.63;5072106;28;20741;-69
2023/12/26 03:21:27;;;;;;;1.70;1.70;;;;;;;6.66;93.22;99578.28;5073427;28;20278;-69
2023/12/26 03:23:54;;;;;;;1.10;1.10;;;;;;;6.67;93.13;99579.13;5073540;28;20253;-69
2023/12/26 03:26:20;;;;;;;0.80;0.80;;;;;;;6.68;92.07;99585.91;5072947;28;20250;-69
2023/12/26 03:28:47;;;;;;;1.23;1.23;;;;;;;6.58;92.49;99594.50;5073414;28;20626;-70
2023/12/26 03:31:14;;;;;;;1.30;1.30;;;;;;;6.58;93.46;99594.50;5072905;28;20656;-69
2023/12/26 03:33:42;;;;;;;1.40;1.30;;;;;;;6.47;93.06;99570.84;5072925;28;20663;-69
2023/12/26 03:36:09;;;;;;;1.33;0.90;;;;;;;6.56;93.24;99596.25;5072948;28;20203;-69
2023/12/26 03:38:36;;;;;;;0.80;0.80;;;;;;;6.55;93.06;99595.41;5072764;28;20200;-69
2023/12/26 03:41:03;;;;;;;2.30;1.07;;;;;;;6.54;93.34;99597.94;5073135;28;20200;-69
2023/12/26 03:43:30;;;;;;;0.63;0.63;;;;;;;6.53;93.45;99601.34;5072026;28;20742;-69
2023/12/26 03:45:57;;;;;;;0.80;0.80;;;;;;;6.46;93.33;99595.50;5072767;28;20250;-69
2023/12/26 03:48:24;;;;;;;0.67;0.67;;;;;;;6.47;93.31;99606.50;5072774;28;20668;-69
2023/12/26 03:50:52;;;;;;;0.67;0.67;;;;;;;6.46;93.42;99602.28;5072406;28;20200;-69
2023/12/26 03:53:19;;;;;;;1.30;1.30;;;;;;;6.43;92.70;99604.88;5072672;28;20742;-69
2023/12/26 03:55:46;;;;;;;1.40;1.30;;;;;;;6.34;93.24;99605.78;5072332;28;20200;-69
2023/12/26 03:58:13;;;;;;;0.90;0.90;;;;;;;6.24;94.29;99617.75;5072396;28;20292;-69
2023/12/26 04:00:40;;;;;;;3.23;1.30;;;;;;;6.21;94.93;99620.34;5072599;28;20557;-69
2023/12/26 04:03:07;;;;;;;1.03;0.83;;;;;;;6.22;94.91;99622.03;5072314;28;20196;-69
2023/12/26 04:05:33;;;;;;;1.03;1.03;;;;;;;6.21;94.99;99615.25;5072411;28;20250;-69
2023/12/26 04:08:02;;;;;;;1.20;1.17;;;;;;;6.20;95.54;99623.72;5072267;28;20207;-69
2023/12/26 04:10:29;;;;;;;1.13;1.13;;;;;;;6.12;95.33;99617.88;5072513;28;20290;-69
2023/12/26 04:12:56;;;;;;;1.10;1.10;;;;;;;6.13;94.76;99616.19;5072270;28;20200;-69
2023/12/26 04:15:24;;;;;;;2.67;1.47;;;;;;;6.11;95.14;99618.72;5071983;28;20215;-69
2023/12/26 04:17:51;;;;;;;1.17;1.17;;;;;;;6.08;95.17;99616.22;5072027;28;20204;-69
2023/12/26 04:20:17;;;;;;;1.87;1.77;;;;;;;6.02;95.19;99616.28;5072363;28;20203;-69
2023/12/26 04:22:44;;;;;;;0.83;0.83;;;;;;;5.98;95.23;99616.34;5072228;28;20676;-69
2023/12/26 04:25:12;;;;;;;2.03;1.80;;;;;;;5.97;94.89;99620.56;5071247;28;20250;-69
2023/12/26 04:27:39;;;;;;;3.27;1.73;;;;;;;5.94;95.23;99625.69;5071897;28;20217;-69
2023/12/26 04:30:07;;;;;;;1.20;1.13;;;;;;;5.89;95.58;99637.59;5072000;28;20576;-69
2023/12/26 04:32:34;;;;;;;1.47;1.47;;;;;;;5.88;96.17;99630.78;5071704;28;20287;-69
2023/12/26 04:35:01;;;;;;;1.33;1.33;;;;;;;5.89;96.49;99631.66;5072058;28;20235;-69
2023/12/26 04:37:28;;;;;;;1.40;1.40;;;;;;;5.75;96.30;99636.81;5071751;28;20192;-69
2023/12/26 04:39:54;;;;;;;1.47;1.47;;;;;;;5.71;96.29;99633.44;5071784;28;20234;-69
2023/12/26 04:42:23;;;;;;;0.77;0.77;;;;;;;5.70;96.18;99638.53;5071597;28;20250;-69
2023/12/26 04:44:50;;;;;;;0.90;0.90;;;;;;;5.67;96.56;99626.69;5071477;28;20287;-69
2023/12/26 04:47:16;;;;;;;1.90;1.17;;;;;;;5.70;96.82;99638.53;5072025;28;20661;-69
2023/12/26 04:49:44;;;;;;;0.83;0.83;;;;;;;5.75;96.25;99645.28;5075397;28;21762;-69
2023/12/26 04:52:11;;;;;;;1.20;1.20;;;;;;;5.66;95.71;99645.34;5071306;28;20227;-69
2023/12/26 04:54:37;;;;;;;7.93;2.03;;;;;;;5.63;96.23;99653.00;5071039;28;20757;-69
2023/12/26 04:57:04;;;;;;;1.33;1.30;;;;;;;5.60;96.53;99645.38;5071481;28;20203;-69
2023/12/26 04:59:32;;;;;;;1.37;1.37;;;;;;;5.50;96.89;99637.81;5071229;28;20218;-69
2023/12/26 05:01:59;;;;;;;1.10;1.10;;;;;;;5.44;97.10;99642.94;5071527;28;20211;-69
2023/12/26 05:04:26;;;;;;;1.27;0.97;;;;;;;5.42;97.04;99649.75;5071548;28;20657;-69
2023/12/26 05:06:53;;;;;;;1.20;1.20;;;;;;;5.29;97.87;99642.19;5070849;28;20269;-69
2023/12/26 05:09:19;;;;;;;0.90;0.90;;;;;;;5.23;98.51;99632.03;5071275;28;20200;-69
2023/12/26 05:11:46;;;;;;;1.23;1.13;;;;;;;5.27;98.46;99627.78;5070947;28;20576;-69
2023/12/26 05:14:13;;;;;;;0.70;0.70;;;;;;;5.27;98.87;99625.22;5071046;28;20597;-69
2023/12/26 05:16:42;;;;;;;2.03;1.07;;;;;;;5.16;98.31;99622.75;5070897;28;20259;-68
2023/12/26 05:19:09;;;;;;;0.70;0.70;;;;;;;5.24;98.31;99626.09;5071126;28;20631;-69
2023/12/26 05:21:36;;;;;;;0.80;0.80;;;;;;;5.23;97.88;99634.56;5071266;28;20664;-69
2023/12/26 05:24:04;;;;;;;3.80;1.03;;;;;;;5.30;97.66;99646.41;5069483;28;20196;-69
2023/12/26 05:26:31;;;;;;;1.47;1.37;;;;;;;5.33;98.00;99652.34;5070916;28;20257;-69
2023/12/26 05:28:58;;;;;;;2.77;2.57;;;;;;;5.33;97.86;99659.97;5070694;28;20200;-69
2023/12/26 05:31:25;;;;;;;0.87;0.87;;;;;;;5.34;96.99;99666.72;5071279;28;20196;-69
2023/12/26 05:33:53;;;;;;;0.83;0.83;;;;;;;5.30;96.69;99666.72;5070729;28;20676;-69
2023/12/26 05:36:19;;;;;;;0.87;0.83;;;;;;;5.27;97.13;99669.28;5071156;28;20199;-69
2023/12/26 05:38:46;;;;;;;0.60;0.60;;;;;;;5.25;97.27;99663.38;5070775;28;20692;-69
2023/12/26 05:41:13;;;;;;;0.70;0.70;;;;;;;5.26;97.42;99670.16;5071113;28;20257;-69
2023/12/26 05:43:40;;;;;;;0.53;0.53;;;;;;;5.28;97.12;99683.69;5071002;28;20570;-69
2023/12/26 05:46:06;;;;;;;0.67;0.67;;;;;;;5.21;97.13;99682.03;5070585;28;20204;-69
2023/12/26 05:48:33;;;;;;;0.97;0.97;;;;;;;5.24;97.18;99682.00;5070920;28;20200;-69
2023/12/26 05:51:01;;;;;;;1.33;1.33;;;;;;;5.19;97.27;99683.75;5070475;28;20204;-69
2023/12/26 05:53:30;;;;;;;1.27;1.03;;;;;;;5.16;97.62;99683.75;5070788;28;20202;-69
2023/12/26 05:55:57;;;;;;;0.57;0.57;;;;;;;5.17;97.69;99684.59;5070229;28;20303;-69
2023/12/26 05:58:25;;;;;;;0.70;0.70;;;;;;;5.11;98.35;99688.00;5070515;28;20235;-69
2023/12/26 06:00:52;;;;;;;1.40;1.40;;;;;;;4.99;98.61;99690.59;5070838;28;20219;-69
2023/12/26 06:03:19;;;;;;;1.73;1.73;;;;;;;4.99;98.90;99695.66;5069243;28;20207;-69
2023/12/26 06:05:46;;;;;;;0.80;0.80;;;;;;;4.97;98.64;99697.38;5070635;28;20629;-69
2023/12/26 06:08:14;;;;;;;1.37;1.33;;;;;;;4.95;99.24;99693.97;5073247;28;20571;-69
2023/12/26 06:10:41;;;;;;;0.90;0.90;;;;;;;5.03;98.94;99704.13;5074569;28;20192;-69
2023/12/26 06:13:08;;;;;;;1.37;1.37;;;;;;;5.04;98.82;99704.09;5074351;28;20204;-69
2023/12/26 06:15:35;;;;;;;1.20;1.20;;;;;;;5.03;98.55;99706.66;5074629;28;20207;-69
2023/12/26 06:18:03;;;;;;;0.97;0.97;;;;;;;5.03;98.75;99704.13;5072676;28;20211;-69
2023/12/26 06:20:30;;;;;;;1.30;1.30;;;;;;;5.02;98.89;99705.81;5074605;28;21659;-69
2023/12/26 06:22:57;;;;;;;0.73;0.73;;;;;;;5.02;99.03;99715.97;5074350;28;20666;-69
2023/12/26 06:25:25;;;;;;;2.20;1.63;;;;;;;5.03;99.06;99711.75;5074118;28;20204;-69
2023/12/26 06:27:52;;;;;;;1.67;1.67;;;;;;;5.03;98.94;99712.59;5074387;28;20289;-69
2023/12/26 06:30:18;;;;;;;1.17;1.17;;;;;;;5.10;99.35;99719.34;5071060;28;20204;-69
2023/12/26 06:32:45;;;;;;;0.80;0.80;;;;;;;5.10;99.43;99719.34;5074345;28;21447;-69
2023/12/26 06:35:12;;;;;;;2.30;0.90;;;;;;;5.04;99.86;99706.66;5073884;28;20222;-69
2023/12/26 06:37:39;;;;;;;0.67;0.67;;;;;;;5.11;100.00;99726.09;5074010;28;20664;-70
2023/12/26 06:40:07;;;;;;;2.13;1.17;;;;;;;5.07;99.85;99714.25;5075529;28;20261;-69
2023/12/26 06:42:35;;;;;;;0.87;0.87;;;;;;;5.17;100.00;99731.16;5074742;28;20211;-69
2023/12/26 06:45:02;;;;;;;1.03;1.03;;;;;;;5.17;100.00;99733.72;5074094;28;20257;-69
2023/12/26 06:47:29;;;;;;;1.20;1.20;;;;;;;5.19;100.00;99734.56;5073746;28;20192;-69
2023/12/26 06:49:55;;;;;;;8.33;4.80;;;;;;;5.20;100.00;99741.31;5073558;28;20644;-69
2023/12/26 06:52:23;;;;;;;4.23;3.47;;;;;;;5.16;100.00;99743.91;5073571;28;20285;-69
2023/12/26 06:54:49;;;;;;;1.30;1.07;;;;;;;5.11;100.00;99741.34;5074522;28;20216;-69
2023/12/26 06:57:16;;;;;;;1.17;1.17;;;;;;;5.10;100.00;99744.75;5073540;28;20196;-68
2023/12/26 06:59:46;;;;;;;0.77;0.77;;;;;;;5.10;100.00;99743.91;5073643;28;20261;-69
2023/12/26 07:02:13;;;;;;;1.13;1.13;;;;;;;5.03;100.00;99745.63;5073658;28;20196;-69
2023/12/26 07:04:41;;;;;;;0.77;0.77;;;;;;;5.04;100.00;99751.56;5070893;28;20249;-69
2023/12/26 07:07:08;;;;;;;0.80;0.80;;;;;;;5.00;100.00;99747.31;5080815;28;20203;-69
2023/12/26 07:09:34;;;;;;;0.63;0.63;;;;;;;5.01;100.00;99762.56;5073244;28;20196;-69
2023/12/26 07:12:01;;;;;;;0.80;0.80;;;;;;;4.99;100.00;99751.56;5073564;28;20199;-69
2023/12/26 07:14:28;;;;;;;0.73;0.73;;;;;;;4.97;100.00;99753.25;5072978;28;20580;-69
2023/12/26 07:16:57;;;;;;;0.70;0.70;;;;;;;4.92;100.00;99756.63;5072713;28;20196;-69
2023/12/26 07:19:24;;;;;;;0.80;0.70;;;;;;;4.88;100.00;99753.25;5071874;28;20265;-69
2023/12/26 07:21:52;;;;;;;0.63;0.63;;;;;;;4.97;100.00;99755.81;5073098;28;20196;-70
2023/12/26 07:24:20;;;;;;;0.83;0.83;;;;;;;5.04;100.00;99765.09;5073603;28;20649;-69
2023/12/26 07:26:47;;;;;;;1.03;1.03;;;;;;;5.08;100.00;99766.78;5073095;28;20625;-69
2023/12/26 07:29:13;;;;;;;1.20;1.20;;;;;;;5.14;100.00;99765.91;5069260;28;20196;-69
2023/12/26 07:31:40;;;;;;;11.23;2.83;;;;;;;5.21;100.00;99763.34;5072795;28;20238;-69
2023/12/26 07:34:09;;;;;;;2.23;1.17;;;;;;;5.23;100.00;99755.75;5073381;28;20199;-69
2023/12/26 07:36:36;;;;;;;1.50;1.50;;;;;;;5.29;100.00;99748.94;5074266;28;20216;-69
2023/12/26 07:39:04;;;;;;;0.70;0.70;;;;;;;5.36;100.00;99748.91;5076766;28;20254;-69
2023/12/26 07:41:31;;;;;;;1.53;1.33;;;;;;;5.46;100.00;99748.03;5072896;28;20295;-69
2023/12/26 07:43:58;;;;;;;2.70;2.60;;;;;;;5.48;100.00;99756.47;5072722;28;20726;-69
2023/12/26 07:46:25;;;;;;;3.30;1.97;;;;;;;5.49;100.00;99750.56;5073088;28;20200;-69
2023/12/26 07:48:51;;;;;;;4.80;1.53;;;;;;;5.57;100.00;99746.28;5072754;28;20257;-69
2023/12/26 07:51:20;;;;;;;1.93;1.73;;;;;;;5.64;100.00;99751.34;5072882;28;20227;-69
2023/12/26 07:53:47;;;;;;;2.50;2.40;;;;;;;5.69;100.00;99746.22;5072526;28;20200;-69
2023/12/26 07:56:14;;;;;;;1.67;1.67;;;;;;;5.81;100.00;99752.09;5071338;28;20239;-69
2023/12/26 07:58:40;;;;;;;3.77;1.50;;;;;;;5.93;100.00;99751.22;5073868;28;20200;-68
2023/12/26 08:01:07;;;;;;;0.83;0.83;;;;;;;5.99;100.00;99750.31;5072349;28;20204;-69
2023/12/26 08:03:34;;;;;;;0.90;0.90;;;;;;;6.04;100.00;99746.88;5072667;28;20196;-69
2023/12/26 08:06:01;;;;;;;1.73;1.63;;;;;;;6.14;100.00;99740.88;5072415;28;20898;-69
2023/12/26 08:08:29;;;;;;;2.33;2.23;;;;;;;6.32;100.00;99750.94;5072390;28;20205;-69
2023/12/26 08:10:56;;;;;;;2.03;1.07;;;;;;;6.39;100.00;99745.81;5072196;28;20215;-69
2023/12/26 08:13:23;;;;;;;1.53;1.30;;;;;;;6.55;100.00;99742.28;5072287;28;20196;-69
2023/12/26 08:15:49;;;;;;;0.77;0.77;;;;;;;6.67;100.00;99747.25;5070075;28;20229;-69
2023/12/26 08:18:16;;;;;;;1.57;1.37;;;;;;;6.79;100.00;99754.78;5074693;28;20270;-69
2023/12/26 08:20:43;;;;;;;2.17;2.07;;;;;;;6.91;100.00;99746.19;5071931;28;20270;-69
2023/12/26 08:23:09;;;;;;;1.33;1.33;;;;;;;7.03;100.00;99751.16;5071589;28;20196;-69
2023/12/26 08:25:38;;;;;;;1.53;1.50;;;;;;;7.16;100.00;99752.72;5071953;28;20203;-69
2023/12/26 08:28:06;;;;;;;1.90;1.53;;;;;;;7.26;100.00;99755.16;5072256;28;20250;-69
2023/12/26 08:30:33;;;;;;;2.60;1.27;;;;;;;7.40;100.00;99750.72;5071608;28;20568;-69
2023/12/26 08:32:59;;;;;;;2.97;1.30;;;;;;;7.54;100.00;99754.81;5071774;28;20212;-68
2023/12/26 08:35:26;;;;;;;1.60;1.50;;;;;;;7.69;100.00;99754.66;5069428;28;20616;-69
2023/12/26 08:37:53;;;;;;;1.40;1.40;;;;;;;7.79;100.00;99751.09;5071807;28;20267;-69
2023/12/26 08:40:22;;;;;;;2.40;1.13;;;;;;;7.91;100.00;99756.03;5071424;28;20257;-69
2023/12/26 08:42:52;;;;;;;1.33;1.33;;;;;;;8.03;100.00;99745.66;5071661;28;20254;-68
2023/12/26 08:45:18;;;;;;;1.70;1.60;;;;;;;8.20;100.00;99742.84;5071577;28;20192;-66
2023/12/26 08:47:46;;;;;;;1.90;1.77;;;;;;;8.23;100.00;99748.75;5071738;28;20257;-66
2023/12/26 08:50:13;;;;;;;1.57;1.57;;;;;;;8.40;100.00;99751.09;5071089;28;20200;-69
2023/12/26 08:52:39;;;;;;;1.53;1.53;;;;;;;8.54;100.00;99748.28;5071537;28;20223;-69
2023/12/26 08:55:07;;;;;;;2.10;1.33;;;;;;;8.68;100.00;99738.69;5071139;28;20200;-69
2023/12/26 08:57:33;;;;;;;3.93;1.87;;;;;;;8.84;99.31;99742.66;5072762;28;20204;-67
2023/12/26 09:00:03;;;;;;;1.50;1.50;;;;;;;8.96;98.93;99737.34;5072594;28;20196;-69
2023/12/26 09:02:30;;;;;;;1.60;1.60;;;;;;;9.07;97.78;99734.59;5071153;28;20641;-69
2023/12/26 09:04:58;;;;;;;1.83;1.73;;;;;;;9.14;97.55;99742.13;5071494;28;20622;-69
2023/12/26 09:07:25;;;;;;;1.57;1.47;;;;;;;9.26;96.30;99734.22;5070980;28;20640;-69
2023/12/26 09:09:52;;;;;;;1.27;1.27;;;;;;;9.36;96.28;99725.47;5071303;28;20261;-69
2023/12/26 09:12:19;;;;;;;1.33;1.33;;;;;;;9.41;95.56;99721.09;5070900;28;20695;-69
2023/12/26 09:14:46;;;;;;;1.70;1.60;;;;;;;9.59;95.26;99708.81;5068464;28;20207;-69
2023/12/26 09:17:14;;;;;;;1.17;1.03;;;;;;;9.65;95.30;99708.66;5070687;28;20212;-68
2023/12/26 09:19:41;;;;;;;1.87;1.87;;;;;;;9.78;97.00;99713.50;5070979;28;20201;-69
2023/12/26 09:22:08;;;;;;;2.43;1.67;;;;;;;9.91;94.95;99711.50;5073175;28;20298;-69
2023/12/26 09:24:34;;;;;;;1.40;1.30;;;;;;;9.99;93.69;99699.34;5071026;28;20207;-69
2023/12/26 09:27:01;;;;;;;1.33;1.30;;;;;;;10.13;93.81;99701.59;5071108;28;20717;-69
2023/12/26 09:29:28;;;;;;;2.27;1.80;;;;;;;10.25;92.79;99699.63;5070463;28;20707;-69
2023/12/26 09:31:55;;;;;;;2.40;1.90;;;;;;;10.38;91.76;99693.31;5071146;28;20199;-69
2023/12/26 09:34:23;;;;;;;4.33;2.20;;;;;;;10.48;90.67;99699.91;5070779;28;20286;-69
2023/12/26 09:36:50;;;;;;;2.17;2.07;;;;;;;10.62;89.67;99696.16;5070450;28;20219;-69
2023/12/26 09:39:16;;;;;;;2.47;1.77;;;;;;;10.73;89.35;99694.13;5072882;28;20203;-69
2023/12/26 09:41:44;;;;;;;1.47;1.47;;;;;;;10.81;88.53;99682.81;5073921;28;20204;-69
2023/12/26 09:44:12;;;;;;;1.80;1.70;;;;;;;10.89;88.30;99678.31;5075809;28;20204;-69
2023/12/26 09:46:39;;;;;;;2.93;2.73;;;;;;;11.04;87.23;99679.63;5071933;28;20595;-67
2023/12/26 09:49:05;;;;;;;3.00;2.30;;;;;;;11.15;86.42;99681.91;5073615;28;20195;-68
2023/12/26 09:51:39;;;;;;;2.47;1.60;;;;;;;11.28;85.87;99673.78;5071537;28;20323;-66
2023/12/26 09:54:07;;;;;;;2.47;2.10;;;;;;;11.38;85.43;99667.50;5067168;28;20207;-67
2023/12/26 09:56:39;;;;;;;3.27;2.43;;;;;;;11.52;84.87;99662.84;5069443;28;20703;-67
2023/12/26 09:59:08;;;;;;;2.03;1.93;;;;;;;11.57;84.44;99648.13;5066738;28;20286;-66
2023/12/26 10:01:34;;;;;;;3.90;2.80;;;;;;;11.76;82.23;99665.59;5070069;28;20254;-67
2023/12/26 10:04:03;;;;;;;2.53;2.33;;;;;;;11.85;82.99;99662.72;5070593;28;20585;-67
2023/12/26 10:06:30;;;;;;;3.73;2.03;;;;;;;11.93;82.31;99647.91;5070527;28;20196;-67
2023/12/26 10:08:58;;;;;;;6.83;3.17;;;;;;;12.00;82.54;99639.09;5070498;28;20200;-67
2023/12/26 10:11:26;;;;;;;3.87;3.60;;;;;;;12.07;82.19;99643.16;5070183;28;20249;-67
2023/12/26 10:13:54;;;;;;;8.37;4.47;;;;;;;12.19;81.59;99636.78;5070091;28;20295;-67
2023/12/26 10:16:21;;;;;;;3.73;3.43;;;;;;;12.33;80.58;99640.59;5070336;28;20216;-67
2023/12/26 10:18:50;;;;;;;2.87;2.67;;;;;;;12.43;79.22;99634.25;5070109;28;20213;-67
2023/12/26 10:21:17;;;;;;;7.67;3.10;;;;;;;12.42;78.17;99622.28;5070671;28;20196;-67
2023/12/26 10:23:44;;;;;;;3.43;2.73;;;;;;;12.58;77.96;99630.28;5070298;28;20287;-67
2023/12/26 10:26:12;;;;;;;2.60;2.40;;;;;;;12.70;77.92;99621.34;5070470;28;20630;-67
2023/12/26 10:28:39;;;;;;;6.00;3.07;;;;;;;12.87;79.48;99629.28;5070331;28;20203;-67
2023/12/26 10:31:13;;;;;;;5.10;3.60;;;;;;;12.92;78.41;99611.94;5069784;28;20634;-67
2023/12/26 10:33:41;;;;;;;2.80;2.70;;;;;;;12.95;76.30;99614.41;5070455;28;20240;-67
2023/12/26 10:36:10;;;;;;;4.40;3.07;;;;;;;12.99;76.53;99615.94;5067870;28;20652;-67
2023/12/26 10:38:38;;;;;;;2.83;2.73;;;;;;;13.08;74.49;99607.91;5070177;28;20246;-67
2023/12/26 10:41:08;;;;;;;5.83;2.83;;;;;;;13.18;73.91;99609.28;5070060;28;20201;-67
2023/12/26 10:43:39;;;;;;;2.57;2.47;;;;;;;13.22;74.31;99600.53;5069703;28;20288;-67
2023/12/26 10:46:08;;;;;;;2.90;2.80;;;;;;;13.25;74.34;99595.28;5069806;28;20644;-67
2023/12/26 10:48:35;;;;;;;2.83;2.60;;;;;;;13.36;74.40;99595.72;5069928;28;20236;-67
2023/12/26 10:51:03;;;;;;;2.57;2.00;;;;;;;13.41;74.31;99593.78;5069700;28;20207;-67
2023/12/26 10:53:37;;;;;;;4.20;2.17;;;;;;;13.50;74.21;99585.72;5071425;28;20750;-67
2023/12/26 10:56:07;;;;;;;2.10;2.00;;;;;;;13.53;74.41;99585.59;5073379;28;20287;-67
2023/12/26 10:58:34;;;;;;;2.80;2.00;;;;;;;13.60;74.44;99579.28;5073970;28;20724;-67
2023/12/26 11:01:02;;;;;;;1.70;1.60;;;;;;;13.72;74.24;99577.13;5074142;28;20207;-67
2023/12/26 13:52:01;;;;;;;2.77;2.17;;;;;;;16.15;61.89;99482.50;5069743;28;20698;-68
2023/12/26 13:54:27;;;;;;;3.97;2.37;;;;;;;16.12;62.70;99477.47;5071883;28;20196;-68
2023/12/26 13:56:54;;;;;;;2.67;2.47;;;;;;;16.11;63.78;99475.78;5071793;28;20230;-68
2023/12/26 13:59:21;;;;;;;2.90;2.80;;;;;;;16.03;63.93;99477.91;5070820;28;20549;-68
2023/12/26 14:01:47;;;;;;;2.57;2.47;;;;;;;16.00;64.46;99475.50;5070225;28;20192;-68
2023/12/26 14:04:14;;;;;;;2.57;2.47;;;;;;;15.99;65.41;99468.69;5074658;28;20200;-68
2023/12/26 14:06:41;;;;;;;2.37;2.27;;;;;;;15.96;66.06;99472.22;5070492;28;20203;-68
2023/12/26 14:09:10;;;;;;;2.07;1.97;;;;;;;15.93;66.11;99471.56;5069992;28;20291;-68
2023/12/26 14:11:37;;;;;;;3.97;2.33;;;;;;;15.88;66.90;99476.97;5070402;28;20204;-68
2023/12/26 14:14:04;;;;;;;2.50;2.30;;;;;;;15.83;67.30;99478.13;5070505;28;20672;-68
2023/12/26 14:16:30;;;;;;;2.90;2.70;;;;;;;15.82;67.86;99476.44;5070478;28;20676;-68
2023/12/26 14:18:57;;;;;;;3.80;2.33;;;;;;;15.77;68.32;99477.50;5069766;28;20580;-68
2023/12/26 14:21:24;;;;;;;2.80;2.60;;;;;;;15.74;68.28;99482.81;5070446;28;20200;-68
2023/12/26 14:23:51;;;;;;;2.20;2.10;;;;;;;15.60;68.51;99464.59;5070199;28;20196;-68
2023/12/26 14:26:19;;;;;;;4.37;1.67;;;;;;;15.65;68.13;99477.28;5068010;28;20210;-69